createdAt,value
2018-07-15T00:01:07.162Z,15.19
2018-07-15T00:03:35.421Z,15.20
2018-07-15T00:06:03.718Z,15.12
2018-07-15T00:08:32.008Z,15.01
2018-07-15T00:11:00.288Z,14.97
2018-07-15T00:13:28.593Z,14.88
2018-07-15T00:15:56.889Z,14.89
2018-07-15T00:18:25.176Z,14.92
2018-07-15T00:20:53.448Z,14.87
2018-07-15T00:23:21.735Z,14.79
2018-07-15T00:25:50.223Z,14.77
2018-07-15T00:28:18.537Z,14.73
2018-07-15T00:30:46.861Z,14.70
2018-07-15T00:33:15.137Z,14.61
2018-07-15T00:35:43.488Z,14.60
2018-07-15T00:38:11.847Z,14.37
2018-07-15T00:40:40.135Z,14.28
2018-07-15T00:43:08.737Z,14.36
2018-07-15T00:45:37.024Z,14.30
2018-07-15T00:48:05.347Z,14.29
2018-07-15T00:50:33.595Z,14.25
2018-07-15T00:53:01.958Z,14.23
2018-07-15T00:55:30.390Z,14.17
2018-07-15T00:57:58.663Z,14.17
2018-07-15T01:00:32.440Z,14.19
2018-07-15T01:03:00.704Z,14.21
2018-07-15T01:05:28.953Z,14.23
2018-07-15T01:07:57.293Z,14.27
2018-07-15T01:10:25.579Z,14.22
2018-07-15T01:12:53.942Z,14.17
2018-07-15T01:15:22.229Z,14.09
2018-07-15T01:17:50.565Z,14.07
2018-07-15T01:20:18.797Z,14.06
2018-07-15T01:22:47.067Z,14.00
2018-07-15T01:25:15.415Z,13.97
2018-07-15T01:27:43.673Z,14.04
2018-07-15T01:30:12.106Z,13.98
2018-07-15T01:32:40.394Z,13.90
2018-07-15T01:35:08.902Z,13.99
2018-07-15T01:37:37.185Z,13.94
2018-07-15T01:40:05.428Z,13.87
2018-07-15T01:42:33.762Z,13.84
2018-07-15T01:45:02.020Z,13.78
2018-07-15T01:47:30.291Z,13.74
2018-07-15T01:49:58.588Z,13.70
2018-07-15T01:52:26.850Z,13.68
2018-07-15T01:54:55.132Z,13.64
2018-07-15T01:57:23.549Z,13.62
2018-07-15T01:59:51.791Z,13.62
2018-07-15T02:02:20.039Z,13.57
2018-07-15T02:04:48.308Z,13.54
2018-07-15T02:07:16.582Z,13.42
2018-07-15T02:09:44.909Z,13.45
2018-07-15T02:12:13.216Z,13.36
2018-07-15T02:14:41.502Z,13.36
2018-07-15T02:17:10.099Z,13.33
2018-07-15T02:19:38.346Z,13.42
2018-07-15T02:22:06.602Z,13.35
2018-07-15T02:24:34.889Z,13.41
2018-07-15T02:27:03.194Z,13.29
2018-07-15T02:29:31.673Z,13.22
2018-07-15T02:31:59.917Z,13.18
2018-07-15T02:34:28.225Z,13.08
2018-07-15T02:36:56.498Z,13.01
2018-07-15T02:39:24.784Z,13.04
2018-07-15T02:41:53.022Z,12.93
2018-07-15T02:44:21.358Z,12.79
2018-07-15T02:46:49.722Z,12.78
2018-07-15T02:49:18.016Z,12.78
2018-07-15T02:51:46.409Z,12.75
2018-07-15T02:54:14.903Z,12.79
2018-07-15T02:56:43.163Z,12.73
2018-07-15T02:59:11.511Z,12.72
2018-07-15T03:01:39.795Z,12.67
2018-07-15T03:04:08.242Z,12.59
2018-07-15T03:06:36.517Z,12.59
2018-07-15T03:09:07.027Z,12.51
2018-07-15T03:11:35.331Z,12.50
2018-07-15T03:14:03.628Z,12.47
2018-07-15T03:16:31.865Z,12.54
2018-07-15T03:19:00.160Z,12.56
2018-07-15T03:21:28.459Z,12.64
2018-07-15T03:23:56.812Z,12.76
2018-07-15T03:26:25.104Z,12.69
2018-07-15T03:28:53.406Z,12.70
2018-07-15T03:31:21.761Z,12.72
2018-07-15T03:33:50.164Z,12.68
2018-07-15T03:36:18.432Z,12.63
2018-07-15T03:38:46.665Z,12.67
2018-07-15T03:41:15.318Z,12.71
2018-07-15T03:43:43.622Z,12.71
2018-07-15T03:46:11.878Z,12.75
2018-07-15T03:48:40.149Z,12.80
2018-07-15T03:51:08.508Z,12.81
2018-07-15T03:53:36.808Z,12.77
2018-07-15T03:56:05.133Z,12.78
2018-07-15T03:58:33.620Z,12.74
2018-07-15T04:01:01.903Z,12.70
2018-07-15T04:03:30.194Z,12.71
2018-07-15T04:05:58.545Z,12.73
2018-07-15T04:08:26.833Z,12.76
2018-07-15T04:10:55.099Z,12.88
2018-07-15T04:13:23.384Z,12.95
2018-07-15T04:15:52.287Z,13.08
2018-07-15T04:18:20.529Z,13.09
2018-07-15T04:20:48.792Z,13.15
2018-07-15T04:23:17.268Z,13.22
2018-07-15T04:25:45.835Z,13.25
2018-07-15T04:28:14.385Z,13.24
2018-07-15T04:30:42.664Z,13.33
2018-07-15T04:33:10.917Z,13.33
2018-07-15T04:35:39.575Z,13.42
2018-07-15T04:38:07.863Z,13.49
2018-07-15T04:40:36.221Z,13.59
2018-07-15T04:43:04.550Z,13.62
2018-07-15T04:45:33.182Z,13.68
2018-07-15T04:48:01.461Z,13.73
2018-07-15T04:50:29.716Z,13.73
2018-07-15T04:52:58.005Z,13.72
2018-07-15T04:55:26.289Z,13.87
2018-07-15T04:57:54.574Z,13.85
2018-07-15T05:00:22.852Z,13.92
2018-07-15T05:02:51.121Z,14.01
2018-07-15T05:05:19.742Z,14.15
2018-07-15T05:07:48.004Z,14.25
2018-07-15T05:10:16.276Z,14.29
2018-07-15T05:12:44.630Z,14.45
2018-07-15T05:15:12.878Z,14.44
2018-07-15T05:17:41.153Z,14.51
2018-07-15T05:20:09.412Z,14.63
2018-07-15T05:22:37.744Z,14.73
2018-07-15T05:25:06.172Z,14.82
2018-07-15T05:27:34.430Z,14.88
2018-07-15T05:30:02.678Z,14.99
2018-07-15T05:32:31.955Z,15.06
2018-07-15T05:35:00.263Z,15.15
2018-07-15T05:37:28.851Z,15.27
2018-07-15T05:39:57.203Z,15.30
2018-07-15T05:42:25.495Z,15.30
2018-07-15T05:44:53.843Z,15.39
2018-07-15T05:47:22.126Z,15.49
2018-07-15T05:49:50.514Z,15.53
2018-07-15T05:52:18.757Z,15.58
2018-07-15T05:54:47.064Z,15.68
2018-07-15T05:57:15.366Z,15.76
2018-07-15T05:59:43.653Z,15.97
2018-07-15T06:02:11.963Z,16.00
2018-07-15T06:04:40.307Z,16.10
2018-07-15T06:07:08.596Z,16.32
2018-07-15T06:09:36.896Z,16.47
2018-07-15T06:12:05.257Z,16.53
2018-07-15T06:14:33.561Z,16.73
2018-07-15T06:17:01.999Z,16.70
2018-07-15T06:19:30.324Z,16.86
2018-07-15T06:21:58.611Z,16.96
2018-07-15T06:24:26.896Z,17.06
2018-07-15T06:26:55.148Z,17.32
2018-07-15T06:29:23.419Z,17.44
2018-07-15T06:31:52.064Z,17.57
2018-07-15T06:34:20.424Z,17.58
2018-07-15T06:36:48.724Z,17.62
2018-07-15T06:39:16.998Z,17.82
2018-07-15T06:41:45.235Z,17.71
2018-07-15T06:44:13.519Z,17.68
2018-07-15T06:46:41.848Z,17.64
2018-07-15T06:49:10.171Z,17.74
2018-07-15T06:51:38.471Z,17.93
2018-07-15T06:54:06.936Z,18.00
2018-07-15T06:56:35.118Z,18.01
2018-07-15T06:59:03.464Z,18.04
2018-07-15T07:01:31.811Z,18.23
2018-07-15T07:04:00.103Z,18.38
2018-07-15T07:06:28.393Z,18.55
2018-07-15T07:08:56.704Z,18.67
2018-07-15T07:11:25.011Z,18.86
2018-07-15T07:13:53.256Z,19.09
2018-07-15T07:16:21.542Z,19.26
2018-07-15T07:18:49.917Z,19.13
2018-07-15T07:21:18.180Z,19.24
2018-07-15T07:23:46.460Z,19.44
2018-07-15T07:26:15.253Z,19.42
2018-07-15T07:28:43.577Z,19.29
2018-07-15T07:31:11.770Z,19.63
2018-07-15T07:33:40.473Z,19.78
2018-07-15T07:36:08.786Z,19.91
2018-07-15T07:38:37.078Z,20.11
2018-07-15T07:41:05.395Z,20.33
2018-07-15T07:43:33.728Z,20.17
2018-07-15T07:46:02.048Z,20.20
2018-07-15T07:48:31.304Z,20.40
2018-07-15T07:50:59.633Z,20.37
2018-07-15T07:53:28.054Z,20.31
2018-07-15T07:55:56.288Z,20.11
2018-07-15T07:58:24.565Z,20.02
2018-07-15T08:00:52.905Z,20.26
2018-07-15T08:03:21.192Z,20.48
2018-07-15T08:05:49.484Z,20.60
2018-07-15T08:08:17.856Z,20.76
2018-07-15T08:10:46.151Z,20.91
2018-07-15T08:13:14.461Z,20.99
2018-07-15T08:15:42.752Z,21.18
2018-07-15T08:18:11.436Z,21.03
2018-07-15T08:20:39.710Z,20.94
2018-07-15T08:23:08.101Z,21.08
2018-07-15T08:25:36.609Z,21.27
2018-07-15T08:28:04.933Z,21.33
2018-07-15T08:30:44.388Z,21.47
2018-07-15T08:33:12.661Z,21.73
2018-07-15T08:35:41.178Z,21.62
2018-07-15T08:38:09.645Z,21.82
2018-07-15T08:40:38.043Z,21.88
2018-07-15T08:43:06.461Z,21.67
2018-07-15T08:45:34.774Z,21.64
2018-07-15T08:48:03.418Z,21.91
2018-07-15T08:50:31.690Z,22.26
2018-07-15T08:52:59.953Z,22.39
2018-07-15T08:55:28.225Z,22.57
2018-07-15T08:57:56.525Z,22.55
2018-07-15T09:00:24.815Z,22.82
2018-07-15T09:02:53.127Z,22.64
2018-07-15T09:05:21.494Z,22.78
2018-07-15T09:07:50.195Z,22.68
2018-07-15T09:10:22.086Z,22.76
2018-07-15T09:12:50.373Z,22.92
2018-07-15T09:15:18.669Z,23.24
2018-07-15T09:17:46.986Z,23.30
2018-07-15T09:20:15.248Z,23.33
2018-07-15T09:22:43.895Z,23.31
2018-07-15T09:25:12.213Z,23.55
2018-07-15T09:27:40.510Z,23.79
2018-07-15T09:30:09.091Z,23.81
2018-07-15T09:32:37.576Z,23.59
2018-07-15T09:35:05.860Z,23.88
2018-07-15T09:37:34.159Z,23.98
2018-07-15T09:40:02.563Z,24.02
2018-07-15T09:42:30.811Z,24.12
2018-07-15T09:44:59.107Z,24.20
2018-07-15T09:47:27.405Z,24.47
2018-07-15T09:49:55.685Z,24.42
2018-07-15T09:52:23.988Z,24.79
2018-07-15T09:54:52.295Z,24.62
2018-07-15T09:57:20.619Z,24.46
2018-07-15T09:59:48.959Z,24.84
2018-07-15T10:02:17.219Z,24.91
2018-07-15T10:04:45.568Z,25.08
2018-07-15T10:07:14.050Z,25.05
2018-07-15T10:09:42.357Z,25.03
2018-07-15T10:12:10.586Z,25.13
2018-07-15T10:14:38.916Z,25.01
2018-07-15T10:17:07.568Z,25.13
2018-07-15T10:19:35.855Z,25.35
2018-07-15T10:22:04.176Z,25.11
2018-07-15T10:24:32.428Z,25.22
2018-07-15T10:27:00.699Z,25.32
2018-07-15T10:29:28.975Z,25.14
2018-07-15T10:31:57.286Z,25.11
2018-07-15T10:34:25.540Z,25.35
2018-07-15T10:36:53.804Z,25.45
2018-07-15T10:39:22.157Z,25.44
2018-07-15T10:41:50.468Z,25.57
2018-07-15T10:44:18.762Z,25.48
2018-07-15T10:46:47.115Z,25.54
2018-07-15T10:49:15.363Z,25.87
2018-07-15T10:51:43.686Z,25.70
2018-07-15T10:54:12.110Z,25.66
2018-07-15T10:56:40.366Z,25.77
2018-07-15T10:59:08.749Z,25.90
2018-07-15T11:01:37.104Z,25.76
2018-07-15T11:04:05.450Z,25.92
2018-07-15T11:06:34.096Z,26.22
2018-07-15T11:09:02.471Z,26.13
2018-07-15T11:11:30.778Z,26.22
2018-07-15T11:13:59.075Z,26.36
2018-07-15T11:16:27.474Z,26.29
2018-07-15T11:18:55.848Z,26.42
2018-07-15T11:21:24.119Z,26.53
2018-07-15T11:23:52.382Z,26.61
2018-07-15T11:26:20.677Z,26.58
2018-07-15T11:28:49.275Z,26.77
2018-07-15T11:31:17.585Z,26.63
2018-07-15T11:33:45.879Z,26.22
2018-07-15T11:36:14.273Z,26.11
2018-07-15T11:38:42.591Z,26.49
2018-07-15T11:41:10.911Z,26.70
2018-07-15T11:43:39.396Z,26.95
2018-07-15T11:46:09.567Z,27.35
2018-07-15T11:48:37.882Z,27.47
2018-07-15T11:51:06.147Z,27.78
2018-07-15T11:53:34.520Z,27.78
2018-07-15T11:56:03.287Z,27.64
2018-07-15T11:58:31.550Z,27.33
2018-07-15T12:00:59.835Z,27.53
2018-07-15T12:03:28.511Z,27.87
2018-07-15T12:05:56.789Z,27.68
2018-07-15T12:08:25.048Z,27.53
2018-07-15T12:10:53.449Z,27.79
2018-07-15T12:13:21.781Z,28.08
2018-07-15T12:15:50.382Z,28.24
2018-07-15T12:18:18.629Z,28.18
2018-07-15T12:20:46.915Z,28.42
2018-07-15T12:23:15.243Z,28.16
2018-07-15T12:25:43.543Z,28.45
2018-07-15T12:28:11.855Z,28.58
2018-07-15T12:30:40.152Z,28.48
2018-07-15T12:33:08.458Z,28.50
2018-07-15T12:35:36.792Z,28.69
2018-07-15T12:38:05.215Z,28.51
2018-07-15T12:40:33.537Z,28.58
2018-07-15T12:43:01.864Z,29.38
2018-07-15T12:45:30.127Z,29.19
2018-07-15T12:47:58.403Z,30.05
2018-07-15T12:50:26.708Z,30.55
2018-07-15T12:52:54.985Z,31.92
2018-07-15T12:55:23.296Z,30.89
2018-07-15T12:57:51.590Z,31.24
2018-07-15T13:00:19.961Z,31.70
2018-07-15T13:02:48.234Z,32.22
2018-07-15T13:05:16.584Z,32.06
2018-07-15T13:07:45.040Z,32.87
2018-07-15T13:10:13.293Z,32.28
2018-07-15T13:12:41.641Z,31.42
2018-07-15T13:15:09.899Z,31.88
2018-07-15T13:17:38.294Z,32.03
2018-07-15T13:20:06.734Z,32.17
2018-07-15T13:22:35.005Z,32.97
2018-07-15T13:25:03.477Z,33.36
2018-07-15T13:27:32.009Z,31.01
2018-07-15T13:30:00.424Z,32.15
2018-07-15T13:32:29.726Z,33.38
2018-07-15T13:34:58.189Z,30.21
2018-07-15T13:37:26.504Z,31.53
2018-07-15T13:39:54.820Z,31.88
2018-07-15T13:42:23.112Z,33.13
2018-07-15T13:44:51.457Z,35.23
2018-07-15T13:47:19.801Z,34.57
2018-07-15T13:49:48.080Z,34.95
2018-07-15T13:52:16.392Z,33.62
2018-07-15T13:54:44.765Z,32.89
2018-07-15T13:57:13.041Z,33.73
2018-07-15T13:59:41.390Z,33.41
2018-07-15T14:02:09.708Z,34.44
2018-07-15T14:04:37.992Z,35.84
2018-07-15T14:07:06.362Z,34.62
2018-07-15T14:09:35.903Z,35.21
2018-07-15T14:12:04.219Z,34.59
2018-07-15T14:14:32.496Z,33.54
2018-07-15T14:17:00.927Z,31.86
2018-07-15T14:19:29.346Z,31.26
2018-07-15T14:21:57.632Z,34.30
2018-07-15T14:24:25.900Z,35.75
2018-07-15T14:26:54.255Z,36.45
2018-07-15T14:29:22.652Z,35.75
2018-07-15T14:31:51.098Z,35.30
2018-07-15T14:34:19.373Z,34.43
2018-07-15T14:36:47.689Z,33.03
2018-07-15T14:39:16.184Z,33.86
2018-07-15T14:41:44.487Z,35.30
2018-07-15T14:44:12.852Z,36.88
2018-07-15T14:46:41.132Z,38.00
2018-07-15T14:49:09.726Z,35.70
2018-07-15T14:51:37.976Z,36.06
2018-07-15T14:54:06.539Z,35.48
2018-07-15T14:56:34.874Z,33.44
2018-07-15T14:59:03.206Z,32.45
2018-07-15T15:01:31.519Z,32.29
2018-07-15T15:03:59.790Z,31.59
2018-07-15T15:06:28.140Z,31.52
2018-07-15T15:08:56.397Z,33.51
2018-07-15T15:11:24.948Z,35.12
2018-07-15T15:13:53.278Z,35.47
2018-07-15T15:16:21.560Z,35.70
2018-07-15T15:18:49.884Z,37.51
2018-07-15T15:21:18.158Z,36.86
2018-07-15T15:23:46.515Z,38.91
2018-07-15T15:26:14.851Z,34.33
2018-07-15T15:28:43.122Z,35.07
2018-07-15T15:31:15.028Z,33.57
2018-07-15T15:33:43.350Z,35.17
2018-07-15T15:36:11.607Z,35.53
2018-07-15T15:38:39.939Z,36.22
2018-07-15T15:41:08.268Z,36.15
2018-07-15T15:43:36.589Z,39.04
2018-07-15T15:46:04.928Z,38.45
2018-07-15T15:48:33.493Z,38.10
2018-07-15T15:51:01.844Z,36.95
2018-07-15T15:53:30.591Z,36.71
2018-07-15T15:55:58.847Z,36.58
2018-07-15T15:58:27.130Z,37.59
2018-07-15T16:00:55.451Z,36.12
2018-07-15T16:03:24.043Z,36.69
2018-07-15T16:05:52.350Z,39.20
2018-07-15T16:08:20.737Z,37.58
2018-07-15T16:10:49.003Z,39.12
2018-07-15T16:13:17.305Z,38.56
2018-07-15T16:15:45.753Z,38.99
2018-07-15T16:18:14.078Z,36.86
2018-07-15T16:20:42.346Z,36.46
2018-07-15T16:23:10.705Z,36.37
2018-07-15T16:25:38.992Z,37.11
2018-07-15T16:28:07.349Z,36.46
2018-07-15T16:30:35.721Z,37.37
2018-07-15T16:33:04.193Z,36.91
2018-07-15T16:35:32.483Z,38.52
2018-07-15T16:38:00.940Z,36.76
2018-07-15T16:40:29.243Z,36.98
2018-07-15T16:42:57.540Z,37.91
2018-07-15T16:45:25.924Z,35.82
2018-07-15T16:47:54.210Z,35.92
2018-07-15T16:50:22.488Z,39.14
2018-07-15T16:52:50.763Z,36.91
2018-07-15T16:55:19.028Z,37.33
2018-07-15T16:57:47.456Z,37.06
2018-07-15T17:00:15.706Z,38.79
2018-07-15T17:02:44.007Z,36.35
2018-07-15T17:05:12.299Z,38.26
2018-07-15T17:07:40.589Z,39.36
2018-07-15T17:10:08.864Z,34.84
2018-07-15T17:12:37.202Z,36.19
2018-07-15T17:15:05.761Z,37.51
2018-07-15T17:17:34.271Z,35.93
2018-07-15T17:20:02.555Z,36.18
2018-07-15T17:22:30.849Z,33.77
2018-07-15T17:24:59.224Z,35.06
2018-07-15T17:27:27.488Z,36.36
2018-07-15T17:29:55.772Z,37.41
2018-07-15T17:32:24.099Z,35.47
2018-07-15T17:34:52.382Z,36.65
2018-07-15T17:37:20.776Z,35.40
2018-07-15T17:39:49.098Z,37.00
2018-07-15T17:42:17.365Z,35.44
2018-07-15T17:44:45.730Z,36.61
2018-07-15T17:47:14.012Z,35.24
2018-07-15T17:49:42.281Z,34.27
2018-07-15T17:52:10.631Z,34.97
2018-07-15T17:54:38.910Z,36.23
2018-07-15T17:57:07.212Z,37.13
2018-07-15T17:59:35.510Z,36.52
2018-07-15T18:02:03.861Z,34.10
2018-07-15T18:04:32.188Z,33.59
2018-07-15T18:07:00.527Z,34.62
2018-07-15T18:09:28.800Z,35.92
2018-07-15T18:11:57.109Z,35.58
2018-07-15T18:14:25.457Z,34.45
2018-07-15T18:16:53.846Z,33.76
2018-07-15T18:19:22.119Z,34.27
2018-07-15T18:21:50.578Z,33.24
2018-07-15T18:24:18.861Z,31.61
2018-07-15T18:26:47.204Z,30.43
2018-07-15T18:29:15.461Z,29.99
2018-07-15T18:31:43.862Z,29.88
2018-07-15T18:34:12.213Z,29.98
2018-07-15T18:36:40.654Z,30.28
2018-07-15T18:39:09.377Z,30.35
2018-07-15T18:41:37.649Z,29.97
2018-07-15T18:44:06.314Z,29.93
2018-07-15T18:46:34.623Z,29.68
2018-07-15T18:49:03.085Z,30.08
2018-07-15T18:51:31.398Z,29.74
2018-07-15T18:53:59.666Z,30.04
2018-07-15T18:56:30.326Z,29.47
2018-07-15T18:58:58.843Z,29.37
2018-07-15T19:01:27.108Z,28.93
2018-07-15T19:03:55.455Z,28.61
2018-07-15T19:06:28.556Z,27.80
2018-07-15T19:08:57.181Z,27.38
2018-07-15T19:11:25.537Z,27.16
2018-07-15T19:13:54.433Z,27.36
2018-07-15T19:16:22.788Z,27.47
2018-07-15T19:18:51.101Z,27.17
2018-07-15T19:21:19.366Z,26.77
2018-07-15T19:23:47.636Z,26.61
2018-07-15T19:26:16.440Z,26.60
2018-07-15T19:28:44.951Z,26.31
2018-07-15T19:31:13.557Z,25.99
2018-07-15T19:33:42.213Z,25.60
2018-07-15T19:36:10.629Z,25.47
2018-07-15T19:38:39.305Z,25.44
2018-07-15T19:41:07.803Z,25.49
2018-07-15T19:43:37.544Z,25.27
2018-07-15T19:46:05.903Z,24.98
2018-07-15T19:48:34.164Z,24.84
2018-07-15T19:51:02.507Z,24.68
2018-07-15T19:53:30.799Z,24.39
2018-07-15T19:55:59.102Z,24.24
2018-07-15T19:58:27.363Z,24.09
2018-07-15T20:00:55.696Z,24.02
2018-07-15T20:03:23.927Z,23.94
2018-07-15T20:05:52.549Z,23.80
2018-07-15T20:08:20.795Z,23.61
2018-07-15T20:10:49.066Z,23.55
2018-07-15T20:13:20.618Z,23.52
2018-07-15T20:15:48.887Z,23.33
2018-07-15T20:18:17.453Z,23.23
2018-07-15T20:20:45.764Z,23.10
2018-07-15T20:23:14.090Z,23.06
2018-07-15T20:25:42.414Z,22.98
2018-07-15T20:28:10.799Z,22.85
2018-07-15T20:30:39.936Z,22.76
2018-07-15T20:33:08.267Z,22.61
2018-07-15T20:35:36.773Z,22.59
2018-07-15T20:38:05.142Z,22.49
2018-07-15T20:40:33.508Z,22.42
2018-07-15T20:43:01.790Z,22.27
2018-07-15T20:45:30.102Z,22.16
2018-07-15T20:47:58.397Z,22.09
2018-07-15T20:50:26.723Z,21.98
2018-07-15T20:52:55.443Z,21.90
2018-07-15T20:55:23.680Z,21.72
2018-07-15T20:57:52.134Z,21.61
2018-07-15T21:00:21.729Z,21.53
2018-07-15T21:02:50.036Z,21.43
2018-07-15T21:05:18.512Z,21.56
2018-07-15T21:07:46.795Z,21.41
2018-07-15T21:10:15.147Z,21.37
2018-07-15T21:12:43.489Z,21.28
2018-07-15T21:15:11.741Z,21.14
2018-07-15T21:17:39.985Z,21.11
2018-07-15T21:20:08.328Z,21.11
2018-07-15T21:22:36.692Z,21.04
2018-07-15T21:25:04.969Z,20.89
2018-07-15T21:27:33.334Z,20.71
2018-07-15T21:30:01.603Z,20.62
2018-07-15T21:32:30.267Z,20.58
2018-07-15T21:34:58.571Z,20.49
2018-07-15T21:37:26.893Z,20.40
2018-07-15T21:39:55.249Z,20.31
2018-07-15T21:42:23.597Z,20.20
2018-07-15T21:44:51.924Z,20.16
2018-07-15T21:47:20.212Z,20.05
2018-07-15T21:49:48.486Z,20.00
2018-07-15T21:52:16.825Z,19.99
2018-07-15T21:54:45.119Z,19.94
2018-07-15T21:57:13.397Z,19.88
2018-07-15T21:59:41.761Z,19.82
2018-07-15T22:02:10.118Z,19.87
2018-07-15T22:04:38.454Z,19.88
2018-07-15T22:07:18.049Z,19.77
2018-07-15T22:10:03.605Z,19.72
2018-07-15T22:12:31.850Z,19.62
2018-07-15T22:15:00.128Z,19.46
2018-07-15T22:17:28.428Z,19.39
2018-07-15T22:19:56.927Z,19.28
2018-07-15T22:22:25.297Z,19.27
2018-07-15T22:24:53.563Z,19.22
2018-07-15T22:27:21.937Z,19.16
2018-07-15T22:29:50.211Z,19.17
2018-07-15T22:32:18.511Z,19.12
2018-07-15T22:34:46.805Z,18.98
2018-07-15T22:37:15.115Z,19.09
2018-07-15T22:39:43.398Z,18.76
2018-07-15T22:42:11.923Z,18.74
2018-07-15T22:44:40.187Z,18.98
2018-07-15T22:47:08.472Z,19.08
2018-07-15T22:49:36.769Z,18.90
2018-07-15T22:52:05.041Z,18.83
2018-07-15T22:54:33.308Z,18.80
2018-07-15T22:57:01.623Z,18.95
2018-07-15T22:59:29.898Z,18.85
2018-07-15T23:01:58.215Z,18.86
2018-07-15T23:05:40.011Z,18.82
2018-07-15T23:08:08.858Z,18.70
2018-07-15T23:10:37.299Z,18.68
2018-07-15T23:13:06.653Z,18.60
2018-07-15T23:15:35.444Z,18.67
2018-07-15T23:18:03.742Z,18.66
2018-07-15T23:20:32.871Z,18.58
2018-07-15T23:23:02.003Z,18.63
2018-07-15T23:25:30.856Z,18.60
2018-07-15T23:27:59.735Z,18.50
2018-07-15T23:30:28.638Z,18.43
2018-07-15T23:32:56.915Z,18.41
2018-07-15T23:35:25.347Z,18.23
2018-07-15T23:37:53.665Z,18.16
2018-07-15T23:40:21.950Z,18.08
2018-07-15T23:42:50.899Z,18.10
2018-07-15T23:45:19.145Z,18.06
2018-07-15T23:47:47.428Z,18.05
2018-07-15T23:50:15.686Z,18.02
2018-07-15T23:52:43.972Z,18.05
2018-07-15T23:55:12.228Z,18.02
2018-07-15T23:57:40.485Z,17.96
